createdAt,value
2019-05-03T00:00:11.904Z,99655.95
2019-05-03T00:02:54.685Z,99661.76
2019-05-03T00:05:29.697Z,99657.37
2019-05-03T00:08:03.177Z,99659.20
2019-05-03T00:10:32.146Z,99677.30
2019-05-03T00:13:01.880Z,99667.28
2019-05-03T00:15:52.069Z,99671.83
2019-05-03T00:18:22.153Z,99672.69
2019-05-03T00:20:50.296Z,99671.58
2019-05-03T00:23:19.310Z,99674.70
2019-05-03T00:25:48.208Z,99670.81
2019-05-03T00:28:17.268Z,99676.98
2019-05-03T00:30:46.161Z,99676.13
2019-05-03T00:33:15.008Z,99677.56
2019-05-03T00:36:06.125Z,99678.42
2019-05-03T00:38:35.036Z,99674.05
2019-05-03T00:41:03.848Z,99670.27
2019-05-03T00:43:32.984Z,99670.38
2019-05-03T00:46:02.133Z,99673.42
2019-05-03T00:48:32.634Z,99668.22
2019-05-03T00:51:02.430Z,99670.01
2019-05-03T00:53:31.881Z,99669.64
2019-05-03T00:56:01.753Z,99672.77
2019-05-03T00:58:31.841Z,99667.09
2019-05-03T01:01:02.702Z,99668.53
2019-05-03T01:03:32.539Z,99667.20
2019-05-03T01:06:02.379Z,99669.95
2019-05-03T01:08:32.698Z,99665.98
2019-05-03T01:11:02.137Z,99676.20
2019-05-03T01:13:32.047Z,99665.98
2019-05-03T01:16:06.680Z,99673.18
2019-05-03T01:18:35.556Z,99671.95
2019-05-03T01:21:04.445Z,99677.36
2019-05-03T01:23:33.274Z,99674.81
2019-05-03T01:26:02.573Z,99677.54
2019-05-03T01:28:32.346Z,99682.48
2019-05-03T01:31:02.517Z,99676.31
2019-05-03T01:33:32.256Z,99674.98
2019-05-03T01:36:02.773Z,99679.07
2019-05-03T01:38:32.141Z,99680.50
2019-05-03T01:41:01.708Z,99685.80
2019-05-03T01:43:31.735Z,99685.91
2019-05-03T01:46:02.757Z,99682.33
2019-05-03T01:48:42.585Z,99694.27
2019-05-03T01:51:18.915Z,99688.20
2019-05-03T01:53:48.554Z,99689.53
2019-05-03T01:56:17.420Z,99688.77
2019-05-03T01:58:46.250Z,99689.16
2019-05-03T02:01:36.985Z,99697.13
2019-05-03T02:04:15.011Z,99695.80
2019-05-03T02:06:43.938Z,99701.67
2019-05-03T02:09:12.949Z,99706.61
2019-05-03T02:11:42.214Z,99704.89
2019-05-03T02:14:12.416Z,99707.75
2019-05-03T02:16:41.982Z,99713.91
2019-05-03T02:19:12.623Z,99718.36
2019-05-03T02:21:41.902Z,99717.13
2019-05-03T02:24:11.816Z,99717.63
2019-05-03T02:26:42.535Z,99723.40
2019-05-03T02:29:12.600Z,99727.84
2019-05-03T02:31:43.551Z,99728.34
2019-05-03T02:34:12.690Z,99728.91
2019-05-03T02:36:42.774Z,99725.03
2019-05-03T02:39:13.982Z,99731.66
2019-05-03T02:41:47.862Z,99734.41
2019-05-03T02:44:16.459Z,99732.72
2019-05-03T02:47:10.157Z,99731.40
2019-05-03T02:49:45.331Z,99731.09
2019-05-03T02:52:31.242Z,99740.02
2019-05-03T02:55:00.350Z,99742.30
2019-05-03T02:57:29.254Z,99739.75
2019-05-03T02:59:58.224Z,99750.36
2019-05-03T03:02:27.295Z,99750.36
2019-05-03T03:04:56.483Z,99749.03
2019-05-03T03:07:25.978Z,99747.31
2019-05-03T03:09:55.874Z,99743.92
2019-05-03T03:12:25.757Z,99748.73
2019-05-03T03:14:55.218Z,99753.21
2019-05-03T03:17:25.430Z,99757.30
2019-05-03T03:19:55.272Z,99756.43
2019-05-03T03:22:25.960Z,99763.06
2019-05-03T03:24:57.900Z,99765.34
2019-05-03T03:27:26.727Z,99772.08
2019-05-03T03:30:29.233Z,99774.73
2019-05-03T03:33:00.224Z,99772.27
2019-05-03T03:35:30.861Z,99772.83
2019-05-03T03:37:59.950Z,99777.67
2019-05-03T03:40:29.689Z,99772.83
2019-05-03T03:42:58.530Z,99768.09
2019-05-03T03:45:27.461Z,99767.63
2019-05-03T03:47:56.763Z,99768.58
2019-05-03T03:50:26.111Z,99768.68
2019-05-03T03:52:55.736Z,99766.95
2019-05-03T03:55:26.498Z,99770.11
2019-05-03T03:57:55.880Z,99775.50
2019-05-03T04:00:25.806Z,99773.22
2019-05-03T04:02:55.399Z,99780.31
2019-05-03T04:05:25.340Z,99784.39
2019-05-03T04:07:56.187Z,99780.51
2019-05-03T04:10:26.277Z,99784.89
2019-05-03T04:12:56.113Z,99788.00
2019-05-03T04:15:50.856Z,99791.98
2019-05-03T04:18:35.960Z,99794.63
2019-05-03T04:21:05.551Z,99796.52
2019-05-03T04:23:35.912Z,99796.91
2019-05-03T04:26:06.788Z,99811.09
2019-05-03T04:28:36.168Z,99810.37
2019-05-03T04:31:06.187Z,99813.94
2019-05-03T04:33:35.857Z,99814.71
2019-05-03T04:36:05.532Z,99822.30
2019-05-03T04:38:35.462Z,99826.37
2019-05-03T04:41:05.869Z,99831.67
2019-05-03T04:43:35.709Z,99843.11
2019-05-03T04:46:26.005Z,99844.44
2019-05-03T04:48:56.200Z,99847.95
2019-05-03T04:51:26.133Z,99844.44
2019-05-03T04:54:12.586Z,99843.88
2019-05-03T04:56:41.591Z,99851.28
2019-05-03T04:59:10.495Z,99848.53
2019-05-03T05:01:39.426Z,99850.22
2019-05-03T05:04:08.213Z,99863.02
2019-05-03T05:06:37.205Z,99865.95
2019-05-03T05:09:07.197Z,99870.69
2019-05-03T05:11:36.246Z,99861.41
2019-05-03T05:14:06.409Z,99865.75
2019-05-03T05:16:35.629Z,99864.42
2019-05-03T05:19:08.163Z,99878.25
2019-05-03T05:21:41.299Z,99882.72
2019-05-03T05:24:10.157Z,99877.51
2019-05-03T05:26:45.070Z,99877.61
2019-05-03T05:29:15.859Z,99878.63
2019-05-03T05:31:44.770Z,99878.63
2019-05-03T05:34:15.331Z,99883.92
2019-05-03T05:36:45.060Z,99886.89
2019-05-03T05:39:18.734Z,99881.86
2019-05-03T05:41:47.433Z,99880.25
2019-05-03T05:44:16.405Z,99889.61
2019-05-03T05:47:10.202Z,99890.19
2019-05-03T05:49:47.125Z,99891.13
2019-05-03T05:52:16.137Z,99900.13
2019-05-03T05:54:48.689Z,99900.04
2019-05-03T05:57:34.626Z,99910.36
2019-05-03T06:00:07.950Z,99908.38
2019-05-03T06:02:36.896Z,99910.34
2019-05-03T06:05:06.160Z,99909.42
2019-05-03T06:07:56.800Z,99910.55
2019-05-03T06:10:46.299Z,99904.89
2019-05-03T06:13:38.040Z,99915.41
2019-05-03T06:16:18.316Z,99917.56
2019-05-03T06:19:18.427Z,99922.69
2019-05-03T06:21:54.858Z,99935.77
2019-05-03T06:24:29.029Z,99929.02
2019-05-03T06:27:06.051Z,99936.33
2019-05-03T06:29:35.221Z,99928.47
2019-05-03T06:32:11.389Z,99931.48
2019-05-03T06:34:40.711Z,99926.38
2019-05-03T06:37:14.805Z,99937.09
2019-05-03T06:39:45.425Z,99938.51
2019-05-03T06:42:19.008Z,99937.28
2019-05-03T06:44:45.596Z,99936.91
2019-05-03T06:47:15.756Z,99935.22
2019-05-03T06:49:48.411Z,99931.41
2019-05-03T06:52:19.701Z,99926.84
2019-05-03T06:54:46.562Z,99929.48
2019-05-03T06:57:17.202Z,99936.80
2019-05-03T06:59:54.993Z,99926.84
2019-05-03T07:02:35.398Z,99922.17
2019-05-03T07:05:05.071Z,99924.34
2019-05-03T07:07:56.063Z,99928.42
2019-05-03T07:10:32.833Z,99931.52
2019-05-03T07:13:04.764Z,99930.28
2019-05-03T07:15:35.177Z,99928.66
2019-05-03T07:18:05.735Z,99925.41
2019-05-03T07:20:47.969Z,99938.48
2019-05-03T07:23:16.846Z,99939.61
2019-05-03T07:25:45.713Z,99935.63
2019-05-03T07:28:15.162Z,99930.22
2019-05-03T07:30:45.355Z,99938.19
2019-05-03T07:33:20.279Z,99941.34
2019-05-03T07:35:49.425Z,99937.16
2019-05-03T07:38:18.338Z,99936.59
2019-05-03T07:40:47.415Z,99927.66
2019-05-03T07:43:18.876Z,99936.23
2019-05-03T07:45:47.111Z,99935.27
2019-05-03T07:48:16.017Z,99937.16
2019-05-03T07:50:45.061Z,99933.01
2019-05-03T07:53:15.024Z,99930.45
2019-05-03T07:56:15.717Z,99934.64
2019-05-03T07:58:59.493Z,99931.71
2019-05-03T08:01:25.015Z,99938.16
2019-05-03T08:03:55.163Z,99924.70
2019-05-03T08:06:24.748Z,99926.99
2019-05-03T08:08:54.552Z,99924.70
2019-05-03T08:11:24.896Z,99924.04
2019-05-03T08:13:55.034Z,99926.20
2019-05-03T08:16:25.090Z,99926.20
2019-05-03T08:18:55.931Z,99921.88
2019-05-03T08:21:25.458Z,99931.64
2019-05-03T08:23:55.652Z,99933.27
2019-05-03T08:26:25.751Z,99930.80
2019-05-03T08:28:55.022Z,99929.20
2019-05-03T08:31:46.368Z,99929.77
2019-05-03T08:34:25.744Z,99929.97
2019-05-03T08:37:05.217Z,99926.25
2019-05-03T08:39:35.565Z,99926.82
2019-05-03T08:42:07.423Z,99925.09
2019-05-03T08:44:36.295Z,99924.14
2019-05-03T08:47:05.577Z,99931.17
2019-05-03T08:49:34.892Z,99931.54
2019-05-03T08:52:05.423Z,99932.77
2019-05-03T08:54:34.845Z,99929.25
2019-05-03T08:57:06.269Z,99927.55
2019-05-03T08:59:35.761Z,99931.17
2019-05-03T09:02:14.101Z,99931.27
2019-05-03T09:04:38.531Z,99932.59
2019-05-03T09:07:06.905Z,99928.52
2019-05-03T09:10:01.681Z,99931.91
2019-05-03T09:12:48.511Z,99929.55
2019-05-03T09:15:17.416Z,99929.05
2019-05-03T09:17:46.498Z,99929.81
2019-05-03T09:20:15.656Z,99929.62
2019-05-03T09:22:45.305Z,99931.98
2019-05-03T09:25:15.446Z,99937.95
2019-05-03T09:27:44.746Z,99933.01
2019-05-03T09:30:14.548Z,99930.35
2019-05-03T09:32:44.789Z,99931.58
2019-05-03T09:35:29.023Z,99928.82
2019-05-03T09:37:45.064Z,99914.02
2019-05-03T09:40:15.171Z,99912.75
2019-05-03T09:42:44.522Z,99916.27
2019-05-03T09:45:15.344Z,99920.81
2019-05-03T09:47:44.905Z,99917.80
2019-05-03T09:50:15.653Z,99916.10
2019-05-03T09:52:47.071Z,99910.79
2019-05-03T09:55:21.457Z,99918.66
2019-05-03T09:57:50.474Z,99914.08
2019-05-03T10:00:19.930Z,99916.47
2019-05-03T10:02:48.819Z,99917.53
2019-05-03T10:05:17.856Z,99913.75
2019-05-03T10:07:46.807Z,99918.20
2019-05-03T10:10:15.691Z,99915.28
2019-05-03T10:12:44.712Z,99921.62
2019-05-03T10:15:15.861Z,99920.30
2019-05-03T10:17:55.635Z,99911.59
2019-05-03T10:20:27.467Z,99918.96
2019-05-03T10:22:59.475Z,99914.21
2019-05-03T10:25:28.346Z,99900.47
2019-05-03T10:27:57.338Z,99901.49
2019-05-03T10:30:27.853Z,99904.15
2019-05-03T10:33:06.169Z,99907.27
2019-05-03T10:35:35.478Z,99908.60
2019-05-03T10:38:05.805Z,99906.30
2019-05-03T10:40:35.762Z,99902.22
2019-05-03T10:43:04.986Z,99904.31
2019-05-03T10:45:35.482Z,99908.30
2019-05-03T10:48:04.990Z,99904.31
2019-05-03T10:50:40.276Z,99904.31
2019-05-03T10:53:15.406Z,99907.93
2019-05-03T10:56:07.834Z,99902.72
2019-05-03T10:58:37.260Z,99909.83
2019-05-03T11:01:06.506Z,99901.09
2019-05-03T11:03:35.539Z,99906.80
2019-05-03T11:06:05.519Z,99903.65
2019-05-03T11:08:34.431Z,99900.53
2019-05-03T11:11:05.805Z,99893.89
2019-05-03T11:13:34.988Z,99888.01
2019-05-03T11:16:05.626Z,99890.83
2019-05-03T11:18:34.785Z,99885.30
2019-05-03T11:21:05.215Z,99890.78
2019-05-03T11:23:34.716Z,99879.22
2019-05-03T11:26:03.704Z,99890.68
2019-05-03T11:28:32.728Z,99887.55
2019-05-03T11:31:21.043Z,99889.35
2019-05-03T11:33:49.893Z,99884.90
2019-05-03T11:36:34.873Z,99885.66
2019-05-03T11:39:05.172Z,99890.58
2019-05-03T11:41:35.907Z,99889.45
2019-05-03T11:44:24.202Z,99898.03
2019-05-03T11:46:55.107Z,99890.62
2019-05-03T11:49:25.481Z,99894.23
2019-05-03T11:51:55.587Z,99893.48
2019-05-03T11:54:24.955Z,99893.12
2019-05-03T11:56:55.625Z,99903.34
2019-05-03T11:59:25.407Z,99902.12
2019-05-03T12:02:15.319Z,99895.98
2019-05-03T12:04:45.871Z,99890.45
2019-05-03T12:07:18.405Z,99889.86
2019-05-03T12:09:47.607Z,99887.00
2019-05-03T12:12:29.456Z,99878.92
2019-05-03T12:14:58.495Z,99879.79
2019-05-03T12:17:30.157Z,99880.25
2019-05-03T12:20:00.855Z,99880.36
2019-05-03T12:22:30.506Z,99876.11
2019-05-03T12:25:00.827Z,99869.00
2019-05-03T12:27:30.460Z,99869.83
2019-05-03T12:29:59.574Z,99863.29
2019-05-03T12:32:28.623Z,99863.29
2019-05-03T12:34:59.521Z,99870.28
2019-05-03T12:37:28.488Z,99862.58
2019-05-03T12:39:57.741Z,99857.16
2019-05-03T12:42:28.484Z,99862.97
2019-05-03T12:44:57.646Z,99859.70
2019-05-03T12:47:26.691Z,99859.81
2019-05-03T12:49:55.952Z,99863.80
2019-05-03T12:52:26.733Z,99864.77
2019-05-03T12:54:55.581Z,99868.39
2019-05-03T12:57:24.892Z,99863.07
2019-05-03T13:00:02.408Z,99860.41
2019-05-03T13:02:38.667Z,99858.59
2019-05-03T13:05:07.753Z,99851.27
2019-05-03T13:07:41.728Z,99849.16
2019-05-03T13:10:10.691Z,99842.41
2019-05-03T13:12:50.652Z,99848.85
2019-05-03T13:15:11.722Z,99847.52
2019-05-03T13:17:41.045Z,99847.13
2019-05-03T13:20:11.957Z,99840.12
2019-05-03T13:22:40.853Z,99852.08
2019-05-03T13:25:09.983Z,99847.34
2019-05-03T13:27:38.868Z,99844.78
2019-05-03T13:30:09.807Z,99839.47
2019-05-03T13:32:38.817Z,99836.08
2019-05-03T13:35:08.495Z,99833.42
2019-05-03T13:37:37.855Z,99822.50
2019-05-03T13:40:07.329Z,99828.68
2019-05-03T13:42:36.238Z,99831.80
2019-05-03T13:45:05.845Z,99829.65
2019-05-03T13:47:35.139Z,99819.84
2019-05-03T13:50:04.898Z,99824.95
2019-05-03T13:52:34.620Z,99824.13
2019-05-03T13:55:05.407Z,99825.45
2019-05-03T13:57:35.355Z,99824.48
2019-05-03T14:00:05.924Z,99818.70
2019-05-03T14:02:35.729Z,99815.55
2019-05-03T14:05:24.567Z,99820.39
2019-05-03T14:07:53.783Z,99802.26
2019-05-03T14:10:24.995Z,99805.93
2019-05-03T14:12:54.825Z,99794.05
2019-05-03T14:15:25.425Z,99794.09
2019-05-03T14:17:54.721Z,99789.74
2019-05-03T14:20:41.539Z,99791.44
2019-05-03T14:23:10.971Z,99790.86
2019-05-03T14:25:39.981Z,99793.77
2019-05-03T14:28:09.155Z,99790.36
2019-05-03T14:30:38.074Z,99785.44
2019-05-03T14:33:07.002Z,99788.92
2019-05-03T14:35:35.801Z,99788.09
2019-05-03T14:38:05.911Z,99782.59
2019-05-03T14:40:34.295Z,99785.88
2019-05-03T14:43:04.789Z,99776.67
2019-05-03T14:45:34.944Z,99777.06
2019-05-03T14:48:05.578Z,99773.80
2019-05-03T14:50:35.057Z,99770.20
2019-05-03T14:53:05.460Z,99761.91
2019-05-03T14:55:59.483Z,99750.33
2019-05-03T14:58:49.346Z,99746.52
2019-05-03T15:01:28.127Z,99759.96
2019-05-03T15:03:57.255Z,99756.50
2019-05-03T15:06:26.185Z,99754.09
2019-05-03T15:08:54.985Z,99757.61
2019-05-03T15:11:24.001Z,99752.66
2019-05-03T15:13:54.911Z,99750.00
2019-05-03T15:16:25.015Z,99746.58
2019-05-03T15:18:54.828Z,99741.02
2019-05-03T15:21:25.206Z,99744.75
2019-05-03T15:23:54.839Z,99745.33
2019-05-03T15:26:24.880Z,99740.59
2019-05-03T15:28:55.423Z,99738.90
2019-05-03T15:31:24.672Z,99737.80
2019-05-03T15:33:55.374Z,99734.37
2019-05-03T15:36:24.350Z,99731.36
2019-05-03T15:38:55.094Z,99730.25
2019-05-03T15:41:25.178Z,99731.80
2019-05-03T15:44:10.575Z,99733.70
2019-05-03T15:46:57.006Z,99726.05
2019-05-03T15:49:27.694Z,99744.05
2019-05-03T15:51:56.619Z,99720.66
2019-05-03T15:54:25.533Z,99718.11
2019-05-03T15:56:54.535Z,99715.45
2019-05-03T15:59:24.382Z,99725.63
2019-05-03T16:01:55.185Z,99722.57
2019-05-03T16:04:25.091Z,99724.77
2019-05-03T16:06:55.380Z,99726.55
2019-05-03T16:09:24.665Z,99723.17
2019-05-03T16:11:55.438Z,99718.33
2019-05-03T16:14:24.501Z,99714.45
2019-05-03T16:16:54.749Z,99715.13
2019-05-03T16:19:24.272Z,99709.92
2019-05-03T16:21:54.530Z,99714.13
2019-05-03T16:24:24.880Z,99712.55
2019-05-03T16:27:27.150Z,99716.64
2019-05-03T16:29:56.081Z,99714.30
2019-05-03T16:32:24.963Z,99707.88
2019-05-03T16:34:54.970Z,99705.69
2019-05-03T16:37:25.438Z,99707.62
2019-05-03T16:39:55.571Z,99710.38
2019-05-03T16:42:25.019Z,99709.63
2019-05-03T16:44:55.000Z,99706.72
2019-05-03T16:47:24.961Z,99710.81
2019-05-03T16:49:53.875Z,99713.68
2019-05-03T16:52:22.794Z,99712.34
2019-05-03T16:54:51.834Z,99714.61
2019-05-03T16:57:20.856Z,99714.61
2019-05-03T16:59:49.890Z,99712.56
2019-05-03T17:02:18.867Z,99716.16
2019-05-03T17:04:55.675Z,99709.25
2019-05-03T17:07:41.879Z,99715.14
2019-05-03T17:10:27.137Z,99709.93
2019-05-03T17:12:56.945Z,99712.33
2019-05-03T17:15:25.936Z,99714.13
2019-05-03T17:17:54.929Z,99715.20
2019-05-03T17:20:25.423Z,99713.87
2019-05-03T17:22:55.518Z,99716.63
2019-05-03T17:25:24.625Z,99714.08
2019-05-03T17:27:54.293Z,99717.70
2019-05-03T17:30:32.806Z,99714.29
2019-05-03T17:32:55.112Z,99720.93
2019-05-03T17:35:25.162Z,99716.95
2019-05-03T17:37:54.631Z,99712.20
2019-05-03T17:40:45.745Z,99710.98
2019-05-03T17:43:23.320Z,99704.84
2019-05-03T17:45:54.997Z,99709.76
2019-05-03T17:48:24.097Z,99703.62
2019-05-03T17:50:54.932Z,99710.63
2019-05-03T17:53:55.155Z,99709.55
2019-05-03T17:56:41.147Z,99702.55
2019-05-03T17:59:15.196Z,99702.75
2019-05-03T18:02:01.225Z,99702.50
2019-05-03T18:04:39.170Z,99691.38
2019-05-03T18:07:18.430Z,99698.02
2019-05-03T18:09:47.786Z,99701.27
2019-05-03T18:12:16.727Z,99695.20
2019-05-03T18:14:45.735Z,99700.52
2019-05-03T18:17:14.912Z,99692.19
2019-05-03T18:19:44.851Z,99702.05
2019-05-03T18:22:15.163Z,99692.77
2019-05-03T18:24:45.493Z,99690.67
2019-05-03T18:27:15.049Z,99697.42
2019-05-03T18:29:44.946Z,99698.28
2019-05-03T18:32:14.700Z,99691.84
2019-05-03T18:34:45.365Z,99692.70
2019-05-03T18:37:15.226Z,99695.57
2019-05-03T18:39:45.227Z,99702.31
2019-05-03T18:42:19.410Z,99700.59
2019-05-03T18:44:51.780Z,99707.43
2019-05-03T18:47:25.068Z,99709.72
2019-05-03T18:49:54.989Z,99707.53
2019-05-03T18:52:24.162Z,99713.34
2019-05-03T18:54:55.093Z,99707.64
2019-05-03T18:57:25.570Z,99707.38
2019-05-03T18:59:55.567Z,99706.52
2019-05-03T19:02:25.192Z,99701.70
2019-05-03T19:04:55.489Z,99708.44
2019-05-03T19:07:46.204Z,99708.05
2019-05-03T19:10:33.060Z,99710.80
2019-05-03T19:13:18.410Z,99721.55
2019-05-03T19:15:47.248Z,99717.58
2019-05-03T19:18:27.789Z,99715.55
2019-05-03T19:20:56.678Z,99715.55
2019-05-03T19:23:25.601Z,99716.52
2019-05-03T19:25:55.284Z,99717.45
2019-05-03T19:28:25.036Z,99715.39
2019-05-03T19:30:54.973Z,99716.83
2019-05-03T19:33:24.101Z,99714.17
2019-05-03T19:35:54.912Z,99711.98
2019-05-03T19:38:24.603Z,99709.80
2019-05-03T19:40:54.802Z,99713.77
2019-05-03T19:43:24.372Z,99714.27
2019-05-03T19:45:54.392Z,99712.19
2019-05-03T19:48:25.413Z,99718.06
2019-05-03T19:50:54.907Z,99709.63
2019-05-03T19:53:49.207Z,99713.61
2019-05-03T19:56:19.100Z,99704.06
2019-05-03T19:58:48.110Z,99707.64
2019-05-03T20:01:42.020Z,99705.59
2019-05-03T20:04:30.301Z,99700.75
2019-05-03T20:07:16.803Z,99703.50
2019-05-03T20:09:45.809Z,99704.83
2019-05-03T20:12:15.269Z,99702.84
2019-05-03T20:14:45.062Z,99702.94
2019-05-03T20:17:14.816Z,99707.78
2019-05-03T20:19:45.145Z,99705.23
2019-05-03T20:22:15.188Z,99709.67
2019-05-03T20:24:44.813Z,99698.03
2019-05-03T20:27:15.141Z,99696.71
2019-05-03T20:29:46.315Z,99694.06
2019-05-03T20:32:15.917Z,99695.02
2019-05-03T20:34:45.077Z,99695.88
2019-05-03T20:37:14.691Z,99698.63
2019-05-03T20:39:43.905Z,99701.75
2019-05-03T20:42:15.445Z,99700.06
2019-05-03T20:44:56.006Z,99696.19
2019-05-03T20:47:38.371Z,99697.97
2019-05-03T20:50:17.808Z,99689.25
2019-05-03T20:52:47.037Z,99684.91
2019-05-03T20:55:16.036Z,99682.36
2019-05-03T20:57:45.111Z,99687.66
2019-05-03T21:00:16.181Z,99694.30
2019-05-03T21:02:53.463Z,99693.06
2019-05-03T21:05:27.209Z,99691.84
2019-05-03T21:07:46.829Z,99692.60
2019-05-03T21:10:15.805Z,99694.95
2019-05-03T21:12:46.241Z,99692.30
2019-05-03T21:15:39.877Z,99687.96
2019-05-03T21:18:27.299Z,99682.30
2019-05-03T21:21:09.632Z,99683.72
2019-05-03T21:23:42.211Z,99678.98
2019-05-03T21:28:59.112Z,99673.78
2019-05-03T21:31:28.070Z,99672.81
2019-05-03T21:33:57.049Z,99669.03
2019-05-03T21:36:25.983Z,99667.14
2019-05-03T21:38:55.028Z,99666.38
2019-05-03T21:41:24.613Z,99666.38
2019-05-03T21:43:54.492Z,99673.97
2019-05-03T21:46:42.486Z,99675.30
2019-05-03T21:49:16.478Z,99670.95
2019-05-03T21:51:45.368Z,99674.08
2019-05-03T21:54:15.269Z,99668.88
2019-05-03T21:56:44.788Z,99671.16
2019-05-03T21:59:13.893Z,99669.83
2019-05-03T22:02:02.091Z,99673.41
2019-05-03T22:04:30.967Z,99670.39
2019-05-03T22:06:59.973Z,99671.26
2019-05-03T22:09:28.952Z,99674.84
2019-05-03T22:11:57.880Z,99668.30
2019-05-03T22:14:35.247Z,99670.03
2019-05-03T22:17:26.226Z,99671.72
2019-05-03T22:19:59.217Z,99669.63
2019-05-03T22:22:47.062Z,99676.86
2019-05-03T22:25:17.602Z,99673.34
2019-05-03T22:27:46.572Z,99673.44
2019-05-03T22:30:15.634Z,99671.84
2019-05-03T22:32:44.632Z,99673.54
2019-05-03T22:35:15.635Z,99673.17
2019-05-03T22:37:44.686Z,99675.43
2019-05-03T22:40:14.605Z,99676.85
2019-05-03T22:42:44.815Z,99675.52
2019-05-03T22:45:14.225Z,99670.42
2019-05-03T22:47:44.567Z,99676.69
2019-05-03T22:50:14.739Z,99672.34
2019-05-03T22:52:45.524Z,99671.94
2019-05-03T22:55:15.277Z,99671.67
2019-05-03T22:57:44.702Z,99672.04
2019-05-03T23:00:14.609Z,99670.81
2019-05-03T23:02:45.510Z,99670.81
2019-05-03T23:05:14.841Z,99664.68
2019-05-03T23:07:44.259Z,99669.12
2019-05-03T23:10:14.817Z,99667.43
2019-05-03T23:12:45.261Z,99669.22
2019-05-03T23:15:15.064Z,99662.23
2019-05-03T23:17:45.154Z,99662.33
2019-05-03T23:20:25.479Z,99658.72
2019-05-03T23:22:54.801Z,99653.05
2019-05-03T23:25:24.984Z,99659.67
2019-05-03T23:27:55.105Z,99652.28
2019-05-03T23:30:24.770Z,99650.95
2019-05-03T23:32:54.700Z,99646.98
2019-05-03T23:35:24.648Z,99647.94
2019-05-03T23:37:54.332Z,99636.95
2019-05-03T23:40:25.296Z,99634.39
2019-05-03T23:42:54.537Z,99631.28
2019-05-03T23:45:25.418Z,99632.23
2019-05-03T23:47:54.085Z,99623.98
2019-05-03T23:50:24.728Z,99630.15
2019-05-03T23:52:54.501Z,99627.50
2019-05-03T23:55:34.935Z,99623.98
2019-05-03T23:58:04.859Z,99631.11
